Time;durP1;ratioP1;P1;durP2;ratioP2;P2;SDS_P1;SDS_P2;PMS_P1;PMS_P2;Temp;Humidity;BMP_temperature;BMP_pressure;BME280_temperature;BME280_humidity;BME280_pressure;Samples;Min_cycle;Max_cycle;Signal;HPM_P1;HPM_P2
2022/10/17 00:00:35;;;;;;;;;;;12.80;99.90;;;;;;4960537;28;19910;-82
2022/10/17 00:03:00;;;;;;;;;;;12.80;99.90;;;;;;4958358;28;19910;-81
2022/10/17 00:05:26;;;;;;;;;;;12.70;99.90;;;;;;4962872;28;20016;-82
2022/10/17 00:07:52;;;;;;;;;;;12.60;99.90;;;;;;4966479;28;19952;-82
2022/10/17 00:10:18;;;;;;;;;;;12.60;99.90;;;;;;4961326;28;19917;-81
2022/10/17 00:12:43;;;;;;;;;;;12.60;99.90;;;;;;4964347;28;19910;-81
2022/10/17 00:15:10;;;;;;;;;;;12.50;99.90;;;;;;4958195;28;19914;-82
2022/10/17 00:17:37;;;;;;;;;;;12.60;99.90;;;;;;4960531;28;19910;-81
2022/10/17 00:20:02;;;;;;;;;;;12.60;99.90;;;;;;4966995;28;19910;-81
2022/10/17 00:22:28;;;;;;;;;;;12.70;99.90;;;;;;4965823;28;19910;-82
2022/10/17 00:24:53;;;;;;;;;;;12.70;99.90;;;;;;4962429;28;20005;-81
2022/10/17 00:27:19;;;;;;;;;;;12.50;99.90;;;;;;4967277;28;19910;-82
2022/10/17 00:29:48;;;;;;;;;;;12.50;99.90;;;;;;4966370;28;19910;-82
2022/10/17 00:32:14;;;;;;;;;;;12.50;99.90;;;;;;4962420;28;19917;-82
2022/10/17 00:34:39;;;;;;;;;;;12.60;99.90;;;;;;4961485;28;19917;-81
2022/10/17 00:37:05;;;;;;;;;;;12.60;99.90;;;;;;4960133;28;20488;-81
2022/10/17 00:39:30;;;;;;;;;;;12.40;99.90;;;;;;4955369;28;19910;-81
2022/10/17 00:41:55;;;;;;;;;;;12.40;99.90;;;;;;4963828;28;19950;-81
2022/10/17 00:44:30;;;;;;;;;;;12.30;99.90;;;;;;4966177;28;20373;-82
2022/10/17 00:46:56;;;;;;;;;;;12.40;99.90;;;;;;4960276;28;19916;-82
2022/10/17 00:49:23;;;;;;;;;;;12.50;99.90;;;;;;4962707;28;20029;-81
2022/10/17 00:51:50;;;;;;;;;;;12.50;99.90;;;;;;4966445;28;19910;-81
2022/10/17 00:54:17;;;;;;;;;;;12.40;99.90;;;;;;4955370;28;19922;-82
2022/10/17 00:56:44;;;;;;;;;;;12.50;99.90;;;;;;4960306;28;20357;-81
2022/10/17 00:59:11;;;;;;;;;;;12.60;99.90;;;;;;4958184;28;19918;-81
2022/10/17 01:01:36;;;;;;;;;;;12.60;99.90;;;;;;4965638;28;19910;-82
2022/10/17 01:04:02;;;;;;;;;;;12.70;99.90;;;;;;4963073;28;19920;-82
2022/10/17 01:06:27;;;;;;;;;;;12.70;99.90;;;;;;4964992;28;19934;-81
2022/10/17 01:08:53;;;;;;;;;;;12.70;99.90;;;;;;4966130;28;19910;-81
2022/10/17 01:11:18;;;;;;;;;;;12.60;99.90;;;;;;4963312;28;19942;-82
2022/10/17 01:14:05;;;;;;;;;;;12.40;99.90;;;;;;4963543;28;19910;-81
2022/10/17 01:16:47;;;;;;;;;;;12.30;99.90;;;;;;4965666;28;19996;-82
2022/10/17 01:19:19;;;;;;;;;;;12.10;99.90;;;;;;4969900;28;19910;-82
2022/10/17 01:21:50;;;;;;;;;;;12.00;99.90;;;;;;4971327;28;20008;-81
2022/10/17 01:24:28;;;;;;;;;;;11.90;99.90;;;;;;4965147;28;19914;-82
2022/10/17 01:27:12;;;;;;;;;;;11.70;99.90;;;;;;4964676;28;20361;-78
2022/10/17 01:29:56;;;;;;;;;;;11.60;99.90;;;;;;4963878;28;20040;-81
2022/10/17 01:32:24;;;;;;;;;;;11.60;99.90;;;;;;4970504;28;19918;-80
2022/10/17 01:35:09;;;;;;;;;;;11.60;99.90;;;;;;4967887;28;19910;-80
2022/10/17 01:37:42;;;;;;;;;;;11.60;99.90;;;;;;4958151;28;20424;-81
2022/10/17 01:40:10;;;;;;;;;;;11.80;99.90;;;;;;4965379;28;19914;-81
2022/10/17 01:42:39;;;;;;;;;;;11.90;99.90;;;;;;4972136;28;19957;-81
2022/10/17 01:45:12;;;;;;;;;;;11.90;99.90;;;;;;4967892;28;19918;-81
2022/10/17 01:47:38;;;;;;;;;;;12.00;99.90;;;;;;4968618;28;19914;-80
2022/10/17 01:50:06;;;;;;;;;;;11.90;99.90;;;;;;4968026;28;19910;-80
2022/10/17 01:52:34;;;;;;;;;;;11.80;99.90;;;;;;4966254;28;19914;-80
2022/10/17 01:55:06;;;;;;;;;;;11.80;99.90;;;;;;4960204;28;19965;-80
2022/10/17 01:57:35;;;;;;;;;;;11.70;99.90;;;;;;4967028;28;19914;-80
2022/10/17 02:00:01;;;;;;;;;;;11.60;99.90;;;;;;4964820;28;20624;-80
2022/10/17 02:02:27;;;;;;;;;;;11.60;99.90;;;;;;4970521;28;19910;-80
2022/10/17 02:04:53;;;;;;;;;;;11.50;99.90;;;;;;4967936;28;20000;-79
2022/10/17 02:07:19;;;;;;;;;;;11.40;99.90;;;;;;4970301;28;19937;-80
2022/10/17 02:09:44;;;;;;;;;;;11.40;99.90;;;;;;4964798;28;19910;-80
2022/10/17 02:12:27;;;;;;;;;;;11.40;99.90;;;;;;4959280;28;19910;-80
2022/10/17 02:15:06;;;;;;;;;;;11.30;99.90;;;;;;4965110;28;20364;-79
2022/10/17 02:17:36;;;;;;;;;;;11.30;99.90;;;;;;4960983;28;19920;-80
2022/10/17 02:20:06;;;;;;;;;;;11.30;99.90;;;;;;4953004;28;19915;-79
2022/10/17 02:22:38;;;;;;;;;;;11.20;99.90;;;;;;4962458;28;19949;-79
2022/10/17 02:25:12;;;;;;;;;;;11.20;99.90;;;;;;4957169;28;20011;-80
2022/10/17 02:27:55;;;;;;;;;;;11.20;99.90;;;;;;4956599;28;19917;-80
2022/10/17 02:30:20;;;;;;;;;;;11.40;99.90;;;;;;4968664;28;19917;-80
2022/10/17 02:32:51;;;;;;;;;;;11.50;99.90;;;;;;4961034;28;19913;-80
2022/10/17 02:35:18;;;;;;;;;;;11.70;99.90;;;;;;4968651;28;19917;-80
2022/10/17 02:37:44;;;;;;;;;;;11.90;99.90;;;;;;4964228;28;19917;-80
2022/10/17 02:40:14;;;;;;;;;;;11.90;99.90;;;;;;4965496;28;19932;-80
2022/10/17 02:42:41;;;;;;;;;;;12.00;99.90;;;;;;4956449;28;19910;-80
2022/10/17 02:45:07;;;;;;;;;;;12.00;99.90;;;;;;4967025;28;19926;-80
2022/10/17 02:47:50;;;;;;;;;;;12.10;99.90;;;;;;4975085;28;19945;-80
2022/10/17 02:50:15;;;;;;;;;;;12.10;99.90;;;;;;4967589;28;19913;-80
2022/10/17 02:52:47;;;;;;;;;;;12.00;99.90;;;;;;4954487;28;20451;-80
2022/10/17 02:55:15;;;;;;;;;;;12.10;99.90;;;;;;4961636;28;20008;-80
2022/10/17 02:57:43;;;;;;;;;;;12.20;99.90;;;;;;4968616;28;19917;-80
2022/10/17 03:00:10;;;;;;;;;;;12.30;99.90;;;;;;4967936;28;19953;-80
2022/10/17 03:02:40;;;;;;;;;;;12.20;99.90;;;;;;4960283;28;19914;-80
2022/10/17 03:05:06;;;;;;;;;;;12.20;99.90;;;;;;4955930;28;19914;-80
2022/10/17 03:07:32;;;;;;;;;;;12.00;99.90;;;;;;4967350;28;19997;-80
2022/10/17 03:09:57;;;;;;;;;;;11.90;99.90;;;;;;4968709;28;20332;-80
2022/10/17 03:12:23;;;;;;;;;;;11.90;99.90;;;;;;4964117;28;20101;-80
2022/10/17 03:14:48;;;;;;;;;;;12.00;99.90;;;;;;4966257;28;19910;-80
2022/10/17 03:17:13;;;;;;;;;;;11.90;99.90;;;;;;4966345;28;20284;-80
2022/10/17 03:19:39;;;;;;;;;;;11.80;99.90;;;;;;4963073;28;19956;-80
2022/10/17 03:22:04;;;;;;;;;;;11.80;99.90;;;;;;4954130;28;19937;-80
2022/10/17 03:24:30;;;;;;;;;;;11.70;99.90;;;;;;4966832;28;19924;-80
2022/10/17 03:26:55;;;;;;;;;;;11.70;99.90;;;;;;4959375;28;19968;-78
2022/10/17 03:29:20;;;;;;;;;;;11.80;99.90;;;;;;4965201;28;19957;-80
2022/10/17 03:31:46;;;;;;;;;;;11.80;99.90;;;;;;4965171;28;20199;-80
2022/10/17 03:34:11;;;;;;;;;;;11.80;99.90;;;;;;4962495;28;19923;-81
2022/10/17 03:36:37;;;;;;;;;;;11.90;99.90;;;;;;4966527;28;19920;-81
2022/10/17 03:39:02;;;;;;;;;;;11.90;99.90;;;;;;4966663;28;19909;-82
2022/10/17 03:41:27;;;;;;;;;;;11.80;99.90;;;;;;4964582;28;19914;-81
2022/10/17 03:43:53;;;;;;;;;;;11.70;99.90;;;;;;4967136;28;19914;-80
2022/10/17 03:46:18;;;;;;;;;;;11.60;99.90;;;;;;4966559;28;20328;-80
2022/10/17 03:48:44;;;;;;;;;;;11.50;99.90;;;;;;4969614;28;19906;-80
2022/10/17 03:51:09;;;;;;;;;;;11.50;99.90;;;;;;4966862;28;20365;-81
2022/10/17 03:53:35;;;;;;;;;;;11.50;99.90;;;;;;4964898;28;19910;-81
2022/10/17 03:56:12;;;;;;;;;;;11.50;99.90;;;;;;4958817;28;19968;-81
2022/10/17 03:58:39;;;;;;;;;;;11.40;99.90;;;;;;4956182;28;19934;-81
2022/10/17 04:01:05;;;;;;;;;;;11.50;99.90;;;;;;4967844;28;19918;-81
2022/10/17 04:03:30;;;;;;;;;;;11.40;99.90;;;;;;4963847;28;19914;-81
2022/10/17 04:05:59;;;;;;;;;;;11.40;99.90;;;;;;4950805;28;20349;-81
2022/10/17 04:08:25;;;;;;;;;;;11.40;99.90;;;;;;4958404;28;19998;-81
2022/10/17 04:10:51;;;;;;;;;;;11.30;99.90;;;;;;4961168;28;20012;-80
2022/10/17 04:13:16;;;;;;;;;;;11.30;99.90;;;;;;4962831;28;19910;-80
2022/10/17 04:15:41;;;;;;;;;;;11.30;99.90;;;;;;4951371;28;20350;-80
2022/10/17 04:18:07;;;;;;;;;;;11.30;99.90;;;;;;4956827;28;20033;-81
2022/10/17 04:20:35;;;;;;;;;;;11.30;99.90;;;;;;4963987;28;19914;-81
2022/10/17 04:23:00;;;;;;;;;;;11.40;99.90;;;;;;4962886;28;20444;-81
2022/10/17 04:25:26;;;;;;;;;;;11.30;99.90;;;;;;4956673;28;19918;-80
2022/10/17 04:27:51;;;;;;;;;;;11.30;99.90;;;;;;4955316;28;19918;-81
2022/10/17 04:30:17;;;;;;;;;;;11.20;99.90;;;;;;4965334;28;19930;-80
2022/10/17 04:32:42;;;;;;;;;;;11.20;99.90;;;;;;4957240;28;20246;-80
2022/10/17 04:35:07;;;;;;;;;;;11.30;99.90;;;;;;4963872;28;19932;-80
2022/10/17 04:37:33;;;;;;;;;;;11.30;99.90;;;;;;4955609;28;19914;-81
2022/10/17 04:39:58;;;;;;;;;;;11.30;99.90;;;;;;4954091;28;19910;-80
2022/10/17 04:42:24;;;;;;;;;;;11.30;99.90;;;;;;4960392;28;19914;-81
2022/10/17 04:44:49;;;;;;;;;;;11.20;99.90;;;;;;4967737;28;19918;-80
2022/10/17 04:47:14;;;;;;;;;;;11.30;99.90;;;;;;4965731;28;19910;-81
2022/10/17 04:49:40;;;;;;;;;;;11.20;99.90;;;;;;4960556;28;19947;-80
2022/10/17 04:52:05;;;;;;;;;;;11.20;99.90;;;;;;4965946;28;19992;-80
2022/10/17 04:54:31;;;;;;;;;;;11.10;99.90;;;;;;4958059;28;19996;-82
2022/10/17 04:56:56;;;;;;;;;;;11.10;99.90;;;;;;4960937;28;20008;-80
2022/10/17 04:59:21;;;;;;;;;;;11.10;99.90;;;;;;4960459;28;19924;-80
2022/10/17 05:01:47;;;;;;;;;;;11.20;99.90;;;;;;4969267;28;20262;-81
2022/10/17 05:04:13;;;;;;;;;;;11.20;99.90;;;;;;4967331;28;19922;-81
2022/10/17 05:06:38;;;;;;;;;;;11.10;99.90;;;;;;4965028;28;19910;-81
2022/10/17 05:09:04;;;;;;;;;;;11.20;99.90;;;;;;4963566;28;19918;-81
2022/10/17 05:11:29;;;;;;;;;;;11.20;99.90;;;;;;4971985;28;19932;-83
2022/10/17 05:13:58;;;;;;;;;;;11.20;99.90;;;;;;4971169;28;19951;-82
2022/10/17 05:16:24;;;;;;;;;;;11.10;99.90;;;;;;4958091;28;19917;-82
2022/10/17 05:18:51;;;;;;;;;;;11.20;99.90;;;;;;4961406;28;20285;-82
2022/10/17 05:21:16;;;;;;;;;;;11.30;99.90;;;;;;4956679;28;19980;-81
2022/10/17 05:23:42;;;;;;;;;;;11.30;99.90;;;;;;4960867;28;20416;-81
2022/10/17 05:26:07;;;;;;;;;;;11.20;99.90;;;;;;4953179;28;20508;-81
2022/10/17 05:28:33;;;;;;;;;;;11.30;99.90;;;;;;4968150;28;19929;-81
2022/10/17 05:31:01;;;;;;;;;;;11.30;99.90;;;;;;4966041;28;19914;-81
2022/10/17 05:33:27;;;;;;;;;;;11.30;99.90;;;;;;4963815;28;19914;-82
2022/10/17 05:35:52;;;;;;;;;;;11.50;99.90;;;;;;4952447;28;20357;-81
2022/10/17 05:38:17;;;;;;;;;;;11.60;99.90;;;;;;4966849;28;19910;-82
2022/10/17 05:40:43;;;;;;;;;;;11.90;99.90;;;;;;4970788;28;19949;-82
2022/10/17 05:43:08;;;;;;;;;;;12.10;99.90;;;;;;4970413;28;19965;-81
2022/10/17 05:45:34;;;;;;;;;;;12.20;99.90;;;;;;4967443;28;19977;-82
2022/10/17 05:48:00;;;;;;;;;;;12.30;99.90;;;;;;4962937;28;19917;-78
2022/10/17 05:50:25;;;;;;;;;;;12.40;99.90;;;;;;4961389;28;19914;-79
2022/10/17 05:52:54;;;;;;;;;;;12.40;99.90;;;;;;4960794;28;19937;-80
2022/10/17 05:55:20;;;;;;;;;;;12.50;99.90;;;;;;4956364;28;19911;-79
2022/10/17 05:57:45;;;;;;;;;;;12.60;99.90;;;;;;4968108;28;20365;-83
2022/10/17 06:00:11;;;;;;;;;;;12.60;99.90;;;;;;4959822;28;19910;-84
2022/10/17 06:02:36;;;;;;;;;;;12.60;99.90;;;;;;4966829;28;19910;-79
2022/10/17 06:05:02;;;;;;;;;;;12.60;99.90;;;;;;4964656;28;19918;-79
2022/10/17 06:07:27;;;;;;;;;;;12.70;99.90;;;;;;4963477;28;19914;-81
2022/10/17 06:09:53;;;;;;;;;;;12.70;99.90;;;;;;4964453;28;20381;-78
2022/10/17 06:12:18;;;;;;;;;;;12.80;99.90;;;;;;4971748;28;19942;-78
2022/10/17 06:14:43;;;;;;;;;;;13.00;99.90;;;;;;4971992;28;19906;-78
2022/10/17 06:17:09;;;;;;;;;;;13.00;99.90;;;;;;4967841;28;19909;-77
2022/10/17 06:19:34;;;;;;;;;;;13.20;99.90;;;;;;4964473;28;19916;-74
2022/10/17 06:22:00;;;;;;;;;;;13.20;99.90;;;;;;4963807;28;19918;-75
2022/10/17 06:24:25;;;;;;;;;;;13.30;99.90;;;;;;4955443;28;19914;-75
2022/10/17 06:26:51;;;;;;;;;;;13.40;99.90;;;;;;4971214;28;20111;-78
2022/10/17 06:29:16;;;;;;;;;;;13.40;99.90;;;;;;4964841;28;19910;-79
2022/10/17 06:31:41;;;;;;;;;;;13.50;99.90;;;;;;4965467;28;20056;-79
2022/10/17 06:34:07;;;;;;;;;;;13.60;99.90;;;;;;4964417;28;20305;-78
2022/10/17 06:36:32;;;;;;;;;;;13.70;99.90;;;;;;4961987;28;19918;-77
2022/10/17 06:38:58;;;;;;;;;;;13.70;99.90;;;;;;4955092;28;19957;-77
2022/10/17 06:41:24;;;;;;;;;;;13.70;99.90;;;;;;4960313;28;19918;-77
2022/10/17 06:43:49;;;;;;;;;;;13.80;99.90;;;;;;4955728;28;19910;-78
2022/10/17 06:46:16;;;;;;;;;;;13.80;99.90;;;;;;4964596;28;19929;-78
2022/10/17 06:48:41;;;;;;;;;;;13.80;99.90;;;;;;4963776;28;19919;-77
2022/10/17 06:51:10;;;;;;;;;;;13.80;99.90;;;;;;4952062;28;20085;-78
2022/10/17 06:53:36;;;;;;;;;;;13.80;99.90;;;;;;4960759;28;19918;-78
2022/10/17 06:56:03;;;;;;;;;;;13.90;99.90;;;;;;4962378;28;20153;-77
2022/10/17 06:58:29;;;;;;;;;;;14.10;99.90;;;;;;4964380;28;19918;-77
2022/10/17 07:00:58;;;;;;;;;;;14.20;99.90;;;;;;4969185;28;20000;-77
2022/10/17 07:03:24;;;;;;;;;;;14.20;99.90;;;;;;4963249;28;19914;-78
2022/10/17 07:05:52;;;;;;;;;;;14.40;99.90;;;;;;4965485;28;19920;-79
2022/10/17 07:08:18;;;;;;;;;;;14.50;99.90;;;;;;4960613;28;19997;-78
2022/10/17 07:10:53;;;;;;;;;;;14.60;99.90;;;;;;4963231;28;20013;-77
2022/10/17 07:13:19;;;;;;;;;;;14.70;99.90;;;;;;4959755;28;19910;-76
2022/10/17 07:15:44;;;;;;;;;;;14.80;99.90;;;;;;4959086;28;19914;-78
2022/10/17 07:18:09;;;;;;;;;;;14.90;99.90;;;;;;4962310;28;19917;-79
2022/10/17 07:20:35;;;;;;;;;;;15.00;99.90;;;;;;4957627;28;19985;-78
2022/10/17 07:23:01;;;;;;;;;;;15.10;99.90;;;;;;4959900;28;19985;-78
2022/10/17 07:25:27;;;;;;;;;;;15.20;99.90;;;;;;4967638;28;19914;-78
2022/10/17 07:27:52;;;;;;;;;;;15.20;99.90;;;;;;4959727;28;19921;-78
2022/10/17 07:30:18;;;;;;;;;;;15.20;99.90;;;;;;4950760;28;19910;-79
2022/10/17 07:32:44;;;;;;;;;;;15.20;99.90;;;;;;4960633;28;19910;-77
2022/10/17 07:35:10;;;;;;;;;;;15.30;99.90;;;;;;4954106;28;20337;-78
2022/10/17 07:37:35;;;;;;;;;;;15.30;99.90;;;;;;4964682;28;19922;-78
2022/10/17 07:40:01;;;;;;;;;;;15.30;99.90;;;;;;4958504;28;19961;-80
2022/10/17 07:42:27;;;;;;;;;;;15.40;99.90;;;;;;4962943;28;20792;-86
2022/10/17 07:44:53;;;;;;;;;;;15.50;99.90;;;;;;4963435;28;20380;-82
2022/10/17 07:47:18;;;;;;;;;;;15.60;99.90;;;;;;4964613;28;19949;-81
2022/10/17 07:49:44;;;;;;;;;;;15.70;99.90;;;;;;4968494;28;20412;-79
2022/10/17 07:52:10;;;;;;;;;;;15.70;99.90;;;;;;4966468;28;19918;-79
2022/10/17 07:54:50;;;;;;;;;;;15.90;99.90;;;;;;4958580;28;20377;-77
2022/10/17 07:57:16;;;;;;;;;;;15.90;99.90;;;;;;4961513;28;19911;-75
2022/10/17 07:59:41;;;;;;;;;;;16.00;99.90;;;;;;4961263;28;20253;-75
2022/10/17 08:02:12;;;;;;;;;;;16.10;99.90;;;;;;4953586;28;19910;-75
2022/10/17 08:04:38;;;;;;;;;;;16.20;99.90;;;;;;4961854;28;19925;-75
2022/10/17 08:07:03;;;;;;;;;;;16.30;99.90;;;;;;4962399;28;19911;-76
2022/10/17 08:09:29;;;;;;;;;;;16.40;99.90;;;;;;4953194;28;20382;-75
2022/10/17 08:11:54;;;;;;;;;;;16.50;99.90;;;;;;4959441;28;19945;-78
2022/10/17 08:14:19;;;;;;;;;;;16.60;99.90;;;;;;4956658;28;19996;-77
2022/10/17 08:16:54;;;;;;;;;;;16.70;99.90;;;;;;4961497;28;19918;-78
2022/10/17 08:19:19;;;;;;;;;;;16.90;99.90;;;;;;4960368;28;19909;-77
2022/10/17 08:21:45;;;;;;;;;;;17.00;99.90;;;;;;4960279;28;19965;-78
2022/10/17 08:24:11;;;;;;;;;;;17.20;99.90;;;;;;4961156;28;19957;-77
2022/10/17 08:26:37;;;;;;;;;;;17.30;99.90;;;;;;4959137;28;19937;-77
2022/10/17 08:29:02;;;;;;;;;;;17.40;99.90;;;;;;4960586;28;19910;-77
2022/10/17 08:31:28;;;;;;;;;;;17.40;99.90;;;;;;4955694;28;19918;-78
2022/10/17 08:33:53;;;;;;;;;;;17.40;99.90;;;;;;4957694;28;19924;-77
2022/10/17 08:36:19;;;;;;;;;;;17.50;99.90;;;;;;4957269;28;19994;-75
2022/10/17 08:38:45;;;;;;;;;;;17.50;99.90;;;;;;4957756;28;19918;-73
2022/10/17 08:41:30;;;;;;;;;;;17.50;99.90;;;;;;4956614;28;19965;-76
2022/10/17 08:44:02;;;;;;;;;;;17.60;99.90;;;;;;4949534;28;20008;-74
2022/10/17 08:46:30;;;;;;;;;;;17.70;99.90;;;;;;4960515;28;20522;-73
2022/10/17 08:48:57;;;;;;;;;;;17.90;99.90;;;;;;4953024;28;19996;-80
2022/10/17 08:51:45;;;;;;;;;;;18.00;99.90;;;;;;4961056;28;19914;-76
2022/10/17 08:54:17;;;;;;;;;;;18.20;99.90;;;;;;4965352;28;19917;-80
2022/10/17 08:56:44;;;;;;;;;;;18.40;99.90;;;;;;4954444;28;20341;-80
2022/10/17 08:59:15;;;;;;;;;;;18.40;99.90;;;;;;4964756;28;19914;-90
2022/10/17 09:01:45;;;;;;;;;;;18.60;99.90;;;;;;4954681;28;20293;-81
2022/10/17 09:04:13;;;;;;;;;;;18.60;99.90;;;;;;4962539;28;20312;-79
2022/10/17 09:06:59;;;;;;;;;;;18.80;99.90;;;;;;4964390;28;20321;-85
2022/10/17 09:09:36;;;;;;;;;;;18.80;99.90;;;;;;4962847;28;19922;-80
2022/10/17 09:12:04;;;;;;;;;;;18.90;99.90;;;;;;4953977;28;19914;-76
2022/10/17 09:14:38;;;;;;;;;;;19.00;99.90;;;;;;4952355;28;20384;-76
2022/10/17 09:17:17;;;;;;;;;;;19.00;99.90;;;;;;4952533;28;19977;-74
2022/10/17 09:19:59;;;;;;;;;;;19.10;99.90;;;;;;4955783;28;20381;-78
2022/10/17 09:22:30;;;;;;;;;;;19.20;99.90;;;;;;4957708;28;20376;-75
2022/10/17 09:25:02;;;;;;;;;;;19.40;99.90;;;;;;4950860;28;19921;-76
2022/10/17 09:28:00;;;;;;;;;;;19.50;99.90;;;;;;4946731;28;19918;-84
2022/10/17 09:30:33;;;;;;;;;;;19.60;99.90;;;;;;4925339;28;19970;-74
2022/10/17 09:32:58;;;;;;;;;;;19.70;99.90;;;;;;4945647;28;19910;-77
2022/10/17 09:35:29;;;;;;;;;;;19.80;99.90;;;;;;4959685;28;20422;-76
2022/10/17 09:37:54;;;;;;;;;;;20.00;99.90;;;;;;4959996;28;19930;-76
2022/10/17 09:40:25;;;;;;;;;;;20.10;99.90;;;;;;4958667;28;20259;-78
2022/10/17 09:42:50;;;;;;;;;;;20.30;99.90;;;;;;4956735;28;19917;-73
2022/10/17 09:45:24;;;;;;;;;;;20.40;99.90;;;;;;4953900;28;19922;-74
2022/10/17 09:48:04;;;;;;;;;;;20.40;99.90;;;;;;4963522;28;20349;-76
2022/10/17 09:50:31;;;;;;;;;;;20.50;99.90;;;;;;4957529;28;19910;-73
2022/10/17 09:53:13;;;;;;;;;;;20.60;99.90;;;;;;4957970;28;19921;-75
2022/10/17 09:55:41;;;;;;;;;;;20.80;99.90;;;;;;4957787;28;20365;-76
2022/10/17 09:58:07;;;;;;;;;;;21.00;99.90;;;;;;4956924;28;19914;-75
2022/10/17 10:00:35;;;;;;;;;;;21.20;99.90;;;;;;4958456;28;19972;-75
2022/10/17 10:03:09;;;;;;;;;;;21.30;99.90;;;;;;4959163;28;20030;-74
2022/10/17 10:05:35;;;;;;;;;;;21.50;99.90;;;;;;4958933;28;19925;-75
2022/10/17 10:08:02;;;;;;;;;;;21.60;99.90;;;;;;4955186;28;19918;-75
2022/10/17 10:10:29;;;;;;;;;;;21.80;99.90;;;;;;4956633;28;20436;-74
2022/10/17 10:13:13;;;;;;;;;;;22.00;99.80;;;;;;4968429;28;19918;-74
2022/10/17 10:15:42;;;;;;;;;;;22.20;98.50;;;;;;4957691;28;19997;-75
2022/10/17 10:18:26;;;;;;;;;;;22.50;98.00;;;;;;4958520;28;19990;-76
2022/10/17 10:21:08;;;;;;;;;;;22.90;96.20;;;;;;4958487;28;20642;-77
2022/10/17 10:23:38;;;;;;;;;;;23.10;94.90;;;;;;4955986;28;20324;-77
2022/10/17 10:26:10;;;;;;;;;;;23.00;94.00;;;;;;4959250;28;19918;-75
2022/10/17 10:28:36;;;;;;;;;;;22.90;94.10;;;;;;4958842;28;20328;-76
2022/10/17 10:31:03;;;;;;;;;;;22.50;94.50;;;;;;4959662;28;19922;-76
2022/10/17 10:33:30;;;;;;;;;;;22.50;94.60;;;;;;4955875;28;19910;-78
2022/10/17 10:35:58;;;;;;;;;;;22.40;95.00;;;;;;4958543;28;20416;-77
2022/10/17 10:38:23;;;;;;;;;;;22.60;94.60;;;;;;4956938;28;19926;-78
2022/10/17 10:40:51;;;;;;;;;;;22.80;94.70;;;;;;4959350;28;20269;-77
2022/10/17 10:43:26;;;;;;;;;;;23.50;93.30;;;;;;4961132;28;19914;-75
2022/10/17 10:45:52;;;;;;;;;;;24.70;91.30;;;;;;4959742;28;20369;-75
2022/10/17 10:48:20;;;;;;;;;;;25.70;87.10;;;;;;4958520;28;19910;-75
2022/10/17 10:50:47;;;;;;;;;;;27.10;80.90;;;;;;4950677;28;19936;-76
2022/10/17 10:53:31;;;;;;;;;;;27.20;75.70;;;;;;4955878;28;19958;-82
2022/10/17 10:55:59;;;;;;;;;;;27.50;72.70;;;;;;4952998;28;19925;-76
2022/10/17 10:58:45;;;;;;;;;;;27.30;72.60;;;;;;4958259;28;19914;-81
2022/10/17 11:01:21;;;;;;;;;;;28.50;66.60;;;;;;4955654;28;19940;-78
2022/10/17 11:03:52;;;;;;;;;;;31.70;58.10;;;;;;4952708;28;20739;-73
2022/10/17 11:06:21;;;;;;;;;;;32.90;53.80;;;;;;4952718;28;20369;-73
2022/10/17 11:08:48;;;;;;;;;;;34.20;50.30;;;;;;4958166;28;20009;-74
2022/10/17 11:11:26;;;;;;;;;;;33.90;49.80;;;;;;4959892;28;19991;-75
2022/10/17 11:13:57;;;;;;;;;;;34.40;48.90;;;;;;4953142;28;19926;-73
2022/10/17 11:16:34;;;;;;;;;;;34.10;48.60;;;;;;4952017;28;19973;-75
2022/10/17 11:19:18;;;;;;;;;;;34.30;48.60;;;;;;4956588;28;19922;-76
2022/10/17 11:21:59;;;;;;;;;;;34.40;49.20;;;;;;4948668;28;19917;-72
2022/10/17 11:24:55;;;;;;;;;;;34.90;47.30;;;;;;4960445;28;19914;-72
2022/10/17 11:27:21;;;;;;;;;;;35.70;46.00;;;;;;4957694;28;19941;-72
2022/10/17 11:29:47;;;;;;;;;;;36.50;44.10;;;;;;4957687;28;19914;-72
2022/10/17 11:32:16;;;;;;;;;;;37.00;43.20;;;;;;4957161;28;20273;-75
2022/10/17 11:34:44;;;;;;;;;;;36.00;44.70;;;;;;4958636;28;20265;-76
2022/10/17 11:37:24;;;;;;;;;;;36.20;43.60;;;;;;4958012;28;19918;-75
2022/10/17 11:40:07;;;;;;;;;;;35.90;43.90;;;;;;4956234;28;19925;-75
2022/10/17 11:42:41;;;;;;;;;;;36.50;44.70;;;;;;4957156;28;19992;-73
2022/10/17 11:45:12;;;;;;;;;;;36.10;43.30;;;;;;4957560;28;20373;-74
2022/10/17 11:47:45;;;;;;;;;;;34.80;45.10;;;;;;4957345;28;19917;-75
2022/10/17 11:50:29;;;;;;;;;;;33.60;47.10;;;;;;4958311;28;19938;-75
2022/10/17 11:52:57;;;;;;;;;;;33.10;48.20;;;;;;4958868;28;19921;-78
2022/10/17 11:55:27;;;;;;;;;;;33.80;47.00;;;;;;4957509;28;19917;-77
2022/10/17 11:57:58;;;;;;;;;;;33.30;47.10;;;;;;4955056;28;20008;-77
2022/10/17 12:00:29;;;;;;;;;;;32.60;48.70;;;;;;4958358;28;19922;-77
2022/10/17 12:03:01;;;;;;;;;;;32.30;48.70;;;;;;4955220;28;19913;-76
2022/10/17 12:05:32;;;;;;;;;;;33.00;47.90;;;;;;4953364;28;19921;-75
2022/10/17 12:08:10;;;;;;;;;;;33.60;47.10;;;;;;4951648;28;19941;-76
2022/10/17 12:10:50;;;;;;;;;;;35.20;45.00;;;;;;4953873;28;20008;-75
2022/10/17 12:13:27;;;;;;;;;;;36.20;42.90;;;;;;4955290;28;19925;-77
2022/10/17 12:16:16;;;;;;;;;;;37.00;41.80;;;;;;4957557;28;19921;-76
2022/10/17 12:18:41;;;;;;;;;;;37.20;41.50;;;;;;4955032;28;20445;-79
2022/10/17 12:21:09;;;;;;;;;;;37.10;41.50;;;;;;4957208;28;19929;-82
2022/10/17 12:23:37;;;;;;;;;;;37.00;41.10;;;;;;4958353;28;20002;-85
2022/10/17 12:26:04;;;;;;;;;;;35.30;44.10;;;;;;4959446;28;20561;-84
2022/10/17 12:28:31;;;;;;;;;;;36.00;43.10;;;;;;4959628;28;19910;-80
2022/10/17 12:30:58;;;;;;;;;;;36.90;41.70;;;;;;4955755;28;20029;-83
2022/10/17 12:33:30;;;;;;;;;;;37.20;40.60;;;;;;4958661;28;19910;-81
2022/10/17 12:36:14;;;;;;;;;;;36.10;42.00;;;;;;4958472;28;20006;-82
2022/10/17 12:38:39;;;;;;;;;;;37.40;40.60;;;;;;4954757;28;19925;-80
2022/10/17 12:41:05;;;;;;;;;;;37.30;40.20;;;;;;4952576;28;20419;-78
2022/10/17 12:43:34;;;;;;;;;;;36.10;42.30;;;;;;4955918;28;19918;-79
2022/10/17 12:46:01;;;;;;;;;;;36.70;41.20;;;;;;4957847;28;20537;-77
2022/10/17 12:48:32;;;;;;;;;;;37.20;41.00;;;;;;4956677;28;19918;-77
2022/10/17 12:51:10;;;;;;;;;;;38.20;40.40;;;;;;4954929;28;19973;-76
2022/10/17 12:53:43;;;;;;;;;;;39.30;38.10;;;;;;4950760;28;21451;-75
2022/10/17 12:56:08;;;;;;;;;;;37.40;40.90;;;;;;4974499;28;20337;-76
2022/10/17 12:58:34;;;;;;;;;;;37.80;39.90;;;;;;4956871;28;19938;-75
2022/10/17 13:01:00;;;;;;;;;;;37.20;40.60;;;;;;4955464;28;19914;-77
2022/10/17 13:03:27;;;;;;;;;;;37.00;41.00;;;;;;4947226;28;19940;-75
2022/10/17 13:05:54;;;;;;;;;;;36.10;42.40;;;;;;4953620;28;19966;-75
2022/10/17 13:08:41;;;;;;;;;;;36.20;42.90;;;;;;4952112;28;20341;-77
2022/10/17 13:11:07;;;;;;;;;;;34.90;43.90;;;;;;4953957;28;19913;-76
2022/10/17 13:13:36;;;;;;;;;;;35.50;43.60;;;;;;4953955;28;19921;-75
2022/10/17 13:16:01;;;;;;;;;;;35.80;42.60;;;;;;4960247;28;19921;-74
2022/10/17 13:18:27;;;;;;;;;;;36.50;42.30;;;;;;4954408;28;19914;-75
2022/10/17 13:21:13;;;;;;;;;;;36.10;42.20;;;;;;4955844;28;19914;-77
2022/10/17 13:23:38;;;;;;;;;;;36.90;41.80;;;;;;4953224;28;19910;-76
2022/10/17 13:26:15;;;;;;;;;;;33.90;45.50;;;;;;4955507;28;20088;-73
2022/10/17 13:28:43;;;;;;;;;;;35.10;45.10;;;;;;4956648;28;19940;-74
2022/10/17 13:31:28;;;;;;;;;;;37.70;41.30;;;;;;4958079;28;19917;-75
2022/10/17 13:33:55;;;;;;;;;;;37.70;40.20;;;;;;4963086;28;19914;-77
2022/10/17 13:36:20;;;;;;;;;;;35.80;42.60;;;;;;4952070;28;21120;-75
2022/10/17 13:38:46;;;;;;;;;;;36.80;42.20;;;;;;4959046;28;19914;-81
2022/10/17 13:41:12;;;;;;;;;;;38.50;40.70;;;;;;4953674;28;19946;-79
2022/10/17 13:43:38;;;;;;;;;;;38.90;39.20;;;;;;4951575;28;19958;-80
2022/10/17 13:46:04;;;;;;;;;;;38.40;39.50;;;;;;4953159;28;20029;-76
2022/10/17 13:48:31;;;;;;;;;;;37.30;40.90;;;;;;4953545;28;19925;-79
2022/10/17 13:50:58;;;;;;;;;;;36.50;41.90;;;;;;4957932;28;19981;-77
2022/10/17 13:53:34;;;;;;;;;;;35.80;42.90;;;;;;4954280;28;19910;-77
2022/10/17 13:56:05;;;;;;;;;;;35.80;43.70;;;;;;4953474;28;19918;-78
2022/10/17 13:58:40;;;;;;;;;;;33.40;46.60;;;;;;4963215;28;19918;-79
2022/10/17 14:01:07;;;;;;;;;;;31.10;50.70;;;;;;4958481;28;19910;-78
2022/10/17 14:03:33;;;;;;;;;;;29.90;52.70;;;;;;4959011;28;19920;-78
2022/10/17 14:06:04;;;;;;;;;;;29.40;53.90;;;;;;4959970;28;20016;-77
2022/10/17 14:08:30;;;;;;;;;;;28.80;55.10;;;;;;4959615;28;20071;-78
2022/10/17 14:11:02;;;;;;;;;;;28.10;56.80;;;;;;4958761;28;19917;-79
2022/10/17 14:13:29;;;;;;;;;;;27.40;57.60;;;;;;4959980;28;20285;-79
2022/10/17 14:15:56;;;;;;;;;;;27.50;57.60;;;;;;4959540;28;20363;-80
2022/10/17 14:18:28;;;;;;;;;;;27.70;57.60;;;;;;4956209;28;20005;-78
2022/10/17 14:20:53;;;;;;;;;;;28.40;57.60;;;;;;4954108;28;19950;-77
2022/10/17 14:23:28;;;;;;;;;;;31.50;51.70;;;;;;4955927;28;20336;-77
2022/10/17 14:26:10;;;;;;;;;;;33.20;48.00;;;;;;4953153;28;19914;-78